sensor_id;sensor_type;location;lat;lon;timestamp;P1;durP1;ratioP1;P2;durP2;ratioP2
6926;SDS011;3503;50.07605000;8.86719200;2023-02-28T00:11:35;4.07;;;1.60;;
6926;SDS011;3503;50.07605000;8.86719200;2023-02-28T00:26:39;3.27;;;1.70;;
6926;SDS011;3503;50.07605000;8.86719200;2023-02-28T00:41:42;3.93;;;2.03;;
6926;SDS011;3503;50.07605000;8.86719200;2023-02-28T00:56:45;6.73;;;2.10;;
6926;SDS011;3503;50.07605000;8.86719200;2023-02-28T01:11:48;5.10;;;2.47;;
6926;SDS011;3503;50.07605000;8.86719200;2023-02-28T01:26:51;4.97;;;2.30;;
6926;SDS011;3503;50.07605000;8.86719200;2023-02-28T01:41:54;13.73;;;2.57;;
6926;SDS011;3503;50.07605000;8.86719200;2023-02-28T01:56:58;4.07;;;2.00;;
6926;SDS011;3503;50.07605000;8.86719200;2023-02-28T02:12:06;5.70;;;2.90;;
6926;SDS011;3503;50.07605000;8.86719200;2023-02-28T02:27:32;4.37;;;2.60;;
6926;SDS011;3503;50.07605000;8.86719200;2023-02-28T02:42:44;6.10;;;2.87;;
6926;SDS011;3503;50.07605000;8.86719200;2023-02-28T02:57:51;4.00;;;2.07;;
6926;SDS011;3503;50.07605000;8.86719200;2023-02-28T03:12:57;4.00;;;2.60;;
6926;SDS011;3503;50.07605000;8.86719200;2023-02-28T03:28:08;3.17;;;1.67;;
6926;SDS011;3503;50.07605000;8.86719200;2023-02-28T03:43:18;3.67;;;3.00;;
6926;SDS011;3503;50.07605000;8.86719200;2023-02-28T03:58:26;3.40;;;2.10;;
6926;SDS011;3503;50.07605000;8.86719200;2023-02-28T04:13:32;3.27;;;1.83;;
6926;SDS011;3503;50.07605000;8.86719200;2023-02-28T04:28:36;2.87;;;1.97;;
6926;SDS011;3503;50.07605000;8.86719200;2023-02-28T04:43:39;4.53;;;2.27;;
6926;SDS011;3503;50.07605000;8.86719200;2023-02-28T04:58:42;3.50;;;1.90;;
6926;SDS011;3503;50.07605000;8.86719200;2023-02-28T05:13:45;11.80;;;5.73;;
6926;SDS011;3503;50.07605000;8.86719200;2023-02-28T05:28:49;9.93;;;2.47;;
6926;SDS011;3503;50.07605000;8.86719200;2023-02-28T05:43:52;5.23;;;2.50;;
6926;SDS011;3503;50.07605000;8.86719200;2023-02-28T05:58:55;8.13;;;2.37;;
6926;SDS011;3503;50.07605000;8.86719200;2023-02-28T06:13:58;6.63;;;2.80;;
6926;SDS011;3503;50.07605000;8.86719200;2023-02-28T06:29:02;8.10;;;3.50;;
6926;SDS011;3503;50.07605000;8.86719200;2023-02-28T06:44:05;8.80;;;2.83;;
6926;SDS011;3503;50.07605000;8.86719200;2023-02-28T06:59:11;3.63;;;1.90;;
6926;SDS011;3503;50.07605000;8.86719200;2023-02-28T07:14:14;5.50;;;2.90;;
6926;SDS011;3503;50.07605000;8.86719200;2023-02-28T07:29:18;4.90;;;1.90;;
6926;SDS011;3503;50.07605000;8.86719200;2023-02-28T07:44:21;8.63;;;2.50;;
6926;SDS011;3503;50.07605000;8.86719200;2023-02-28T07:59:24;4.70;;;2.17;;
6926;SDS011;3503;50.07605000;8.86719200;2023-02-28T08:14:27;5.13;;;3.00;;
6926;SDS011;3503;50.07605000;8.86719200;2023-02-28T08:29:30;4.77;;;2.60;;
6926;SDS011;3503;50.07605000;8.86719200;2023-02-28T08:44:33;4.57;;;2.33;;
6926;SDS011;3503;50.07605000;8.86719200;2023-02-28T08:59:36;4.50;;;2.53;;
6926;SDS011;3503;50.07605000;8.86719200;2023-02-28T09:14:39;4.03;;;2.10;;
6926;SDS011;3503;50.07605000;8.86719200;2023-02-28T09:29:42;6.03;;;2.30;;
6926;SDS011;3503;50.07605000;8.86719200;2023-02-28T09:44:45;5.67;;;2.53;;
6926;SDS011;3503;50.07605000;8.86719200;2023-02-28T09:59:53;6.90;;;3.80;;
6926;SDS011;3503;50.07605000;8.86719200;2023-02-28T10:15:03;5.67;;;2.63;;
6926;SDS011;3503;50.07605000;8.86719200;2023-02-28T10:30:09;3.70;;;2.23;;
6926;SDS011;3503;50.07605000;8.86719200;2023-02-28T10:45:15;5.40;;;3.33;;
6926;SDS011;3503;50.07605000;8.86719200;2023-02-28T11:00:20;7.87;;;3.10;;
6926;SDS011;3503;50.07605000;8.86719200;2023-02-28T11:15:27;8.00;;;3.47;;
6926;SDS011;3503;50.07605000;8.86719200;2023-02-28T11:30:32;14.30;;;3.40;;
6926;SDS011;3503;50.07605000;8.86719200;2023-02-28T11:45:43;5.33;;;2.70;;
6926;SDS011;3503;50.07605000;8.86719200;2023-02-28T12:00:57;7.63;;;3.10;;
6926;SDS011;3503;50.07605000;8.86719200;2023-02-28T12:16:21;5.93;;;3.23;;
6926;SDS011;3503;50.07605000;8.86719200;2023-02-28T12:31:38;5.50;;;3.30;;
6926;SDS011;3503;50.07605000;8.86719200;2023-02-28T12:46:45;10.87;;;3.57;;
6926;SDS011;3503;50.07605000;8.86719200;2023-02-28T13:01:56;7.60;;;4.60;;
6926;SDS011;3503;50.07605000;8.86719200;2023-02-28T13:17:09;7.33;;;4.33;;
6926;SDS011;3503;50.07605000;8.86719200;2023-02-28T13:32:29;5.67;;;3.80;;
6926;SDS011;3503;50.07605000;8.86719200;2023-02-28T13:47:38;6.73;;;4.10;;
6926;SDS011;3503;50.07605000;8.86719200;2023-02-28T14:02:45;5.70;;;4.17;;
6926;SDS011;3503;50.07605000;8.86719200;2023-02-28T14:17:56;6.20;;;4.00;;
6926;SDS011;3503;50.07605000;8.86719200;2023-02-28T14:33:14;5.80;;;3.47;;
6926;SDS011;3503;50.07605000;8.86719200;2023-02-28T14:48:23;6.90;;;3.53;;
6926;SDS011;3503;50.07605000;8.86719200;2023-02-28T15:03:30;8.10;;;4.50;;
6926;SDS011;3503;50.07605000;8.86719200;2023-02-28T15:18:36;8.37;;;4.57;;
6926;SDS011;3503;50.07605000;8.86719200;2023-02-28T15:33:52;14.93;;;4.70;;
6926;SDS011;3503;50.07605000;8.86719200;2023-02-28T15:48:57;7.77;;;5.10;;
6926;SDS011;3503;50.07605000;8.86719200;2023-02-28T16:04:00;9.77;;;5.00;;
6926;SDS011;3503;50.07605000;8.86719200;2023-02-28T16:19:04;7.77;;;4.97;;
6926;SDS011;3503;50.07605000;8.86719200;2023-02-28T16:34:07;8.10;;;4.70;;
6926;SDS011;3503;50.07605000;8.86719200;2023-02-28T16:49:11;11.73;;;5.30;;
6926;SDS011;3503;50.07605000;8.86719200;2023-02-28T17:04:15;19.47;;;8.90;;
6926;SDS011;3503;50.07605000;8.86719200;2023-02-28T17:19:18;9.03;;;4.70;;
6926;SDS011;3503;50.07605000;8.86719200;2023-02-28T17:34:21;14.37;;;7.90;;
6926;SDS011;3503;50.07605000;8.86719200;2023-02-28T17:49:24;21.27;;;9.53;;
6926;SDS011;3503;50.07605000;8.86719200;2023-02-28T18:04:27;18.90;;;7.07;;
6926;SDS011;3503;50.07605000;8.86719200;2023-02-28T18:19:30;10.10;;;4.93;;
6926;SDS011;3503;50.07605000;8.86719200;2023-02-28T18:34:33;10.03;;;5.57;;
6926;SDS011;3503;50.07605000;8.86719200;2023-02-28T18:49:36;14.90;;;5.70;;
6926;SDS011;3503;50.07605000;8.86719200;2023-02-28T19:04:41;11.13;;;5.97;;
6926;SDS011;3503;50.07605000;8.86719200;2023-02-28T19:19:43;6.33;;;4.70;;
6926;SDS011;3503;50.07605000;8.86719200;2023-02-28T19:34:46;13.67;;;6.93;;
6926;SDS011;3503;50.07605000;8.86719200;2023-02-28T19:49:50;13.97;;;6.50;;
6926;SDS011;3503;50.07605000;8.86719200;2023-02-28T20:04:55;15.73;;;6.80;;
6926;SDS011;3503;50.07605000;8.86719200;2023-02-28T20:19:58;14.57;;;6.90;;
6926;SDS011;3503;50.07605000;8.86719200;2023-02-28T20:35:02;15.00;;;5.87;;
6926;SDS011;3503;50.07605000;8.86719200;2023-02-28T20:50:06;12.93;;;7.23;;
6926;SDS011;3503;50.07605000;8.86719200;2023-02-28T21:05:12;11.60;;;7.23;;
6926;SDS011;3503;50.07605000;8.86719200;2023-02-28T21:20:15;13.70;;;7.60;;
6926;SDS011;3503;50.07605000;8.86719200;2023-02-28T21:35:22;14.67;;;7.63;;
6926;SDS011;3503;50.07605000;8.86719200;2023-02-28T21:50:25;11.83;;;6.87;;
6926;SDS011;3503;50.07605000;8.86719200;2023-02-28T22:05:29;17.20;;;7.23;;
6926;SDS011;3503;50.07605000;8.86719200;2023-02-28T22:20:32;15.30;;;7.63;;
6926;SDS011;3503;50.07605000;8.86719200;2023-02-28T22:35:35;22.03;;;6.70;;
6926;SDS011;3503;50.07605000;8.86719200;2023-02-28T22:50:38;16.30;;;9.20;;
6926;SDS011;3503;50.07605000;8.86719200;2023-02-28T23:05:41;16.77;;;8.30;;
6926;SDS011;3503;50.07605000;8.86719200;2023-02-28T23:20:44;17.07;;;8.47;;
6926;SDS011;3503;50.07605000;8.86719200;2023-02-28T23:35:47;16.50;;;6.70;;
6926;SDS011;3503;50.07605000;8.86719200;2023-02-28T23:50:50;20.07;;;8.40;;
